createdAt,value
2019-06-26T00:00:54.152Z,58.33
2019-06-26T00:01:54.095Z,58.33
2019-06-26T00:02:54.040Z,58.33
2019-06-26T00:03:53.991Z,58.33
2019-06-26T00:04:53.962Z,58.33
2019-06-26T00:05:53.875Z,58.23
2019-06-26T00:06:53.822Z,58.36
2019-06-26T00:07:53.772Z,58.26
2019-06-26T00:08:53.722Z,58.26
2019-06-26T00:09:53.691Z,58.23
2019-06-26T00:10:53.611Z,58.16
2019-06-26T00:11:53.562Z,58.16
2019-06-26T00:12:53.513Z,58.03
2019-06-26T00:13:53.473Z,58.06
2019-06-26T00:14:53.441Z,58.13
2019-06-26T00:15:53.352Z,58.16
2019-06-26T00:16:53.304Z,58.06
2019-06-26T00:17:53.254Z,58.16
2019-06-26T00:18:53.206Z,58.26
2019-06-26T00:19:53.176Z,58.26
2019-06-26T00:20:53.110Z,58.26
2019-06-26T00:21:53.035Z,58.26
2019-06-26T00:22:53.005Z,58.16
2019-06-26T00:23:52.928Z,58.26
2019-06-26T00:24:52.904Z,58.36
2019-06-26T00:25:52.825Z,58.26
2019-06-26T00:26:52.774Z,58.36
2019-06-26T00:27:52.715Z,58.36
2019-06-26T00:28:52.664Z,58.46
2019-06-26T00:29:52.646Z,58.36
2019-06-26T00:30:52.589Z,58.56
2019-06-26T00:31:52.516Z,58.46
2019-06-26T00:32:52.467Z,58.65
2019-06-26T00:33:52.425Z,58.75
2019-06-26T00:34:52.397Z,58.78
2019-06-26T00:35:52.326Z,58.88
2019-06-26T00:36:52.278Z,58.78
2019-06-26T00:37:52.234Z,58.88
2019-06-26T00:38:52.178Z,58.88
2019-06-26T00:39:52.158Z,58.88
2019-06-26T00:40:52.080Z,58.88
2019-06-26T00:41:52.036Z,58.98
2019-06-26T00:42:51.986Z,58.98
2019-06-26T00:43:51.979Z,59.08
2019-06-26T00:44:51.917Z,59.18
2019-06-26T00:45:51.847Z,59.08
2019-06-26T00:46:51.827Z,59.18
2019-06-26T00:47:51.752Z,59.28
2019-06-26T00:48:51.705Z,59.28
2019-06-26T00:49:51.686Z,59.28
2019-06-26T00:50:51.607Z,59.18
2019-06-26T00:51:51.557Z,59.08
2019-06-26T00:52:51.507Z,58.98
2019-06-26T00:53:51.468Z,58.98
2019-06-26T00:54:51.442Z,58.88
2019-06-26T00:55:51.362Z,58.88
2019-06-26T00:56:51.308Z,58.88
2019-06-26T00:57:51.260Z,58.78
2019-06-26T00:58:51.207Z,58.78
2019-06-26T00:59:51.189Z,58.78
2019-06-26T01:00:51.119Z,58.69
2019-06-26T01:01:51.057Z,58.59
2019-06-26T01:02:51.008Z,58.59
2019-06-26T01:03:50.960Z,58.48
2019-06-26T01:04:50.949Z,58.48
2019-06-26T01:05:50.851Z,58.59
2019-06-26T01:06:50.801Z,58.59
2019-06-26T01:07:50.759Z,58.59
2019-06-26T01:08:50.710Z,58.78
2019-06-26T01:09:50.738Z,58.88
2019-06-26T01:10:50.650Z,58.91
2019-06-26T01:11:50.570Z,59.01
2019-06-26T01:12:50.521Z,59.01
2019-06-26T01:13:57.999Z,59.01
2019-06-26T01:14:51.431Z,59.11
2019-06-26T01:15:50.420Z,59.01
2019-06-26T01:16:50.341Z,58.91
2019-06-26T01:17:50.300Z,58.91
2019-06-26T01:18:50.251Z,58.91
2019-06-26T01:19:50.209Z,58.81
2019-06-26T01:20:50.223Z,58.72
2019-06-26T01:21:50.122Z,58.72
2019-06-26T01:22:50.081Z,58.72
2019-06-26T01:23:50.035Z,58.72
2019-06-26T01:24:49.990Z,58.72
2019-06-26T01:25:49.972Z,58.61
2019-06-26T01:26:49.901Z,58.72
2019-06-26T01:27:49.863Z,58.72
2019-06-26T01:28:49.823Z,58.72
2019-06-26T01:29:49.782Z,58.61
2019-06-26T01:30:49.779Z,58.61
2019-06-26T01:31:49.703Z,58.72
2019-06-26T01:32:49.676Z,58.72
2019-06-26T01:33:49.622Z,58.81
2019-06-26T01:34:49.593Z,58.72
2019-06-26T01:35:49.582Z,58.81
2019-06-26T01:36:49.513Z,58.91
2019-06-26T01:37:49.485Z,59.01
2019-06-26T01:38:49.442Z,59.01
2019-06-26T01:39:49.394Z,59.11
2019-06-26T01:41:58.736Z,59.23
2019-06-26T01:42:58.666Z,59.23
2019-06-26T01:44:13.653Z,59.34
2019-06-26T01:44:59.604Z,59.44
2019-06-26T01:45:58.593Z,59.53
2019-06-26T01:46:58.545Z,59.63
2019-06-26T01:47:58.494Z,59.63
2019-06-26T01:48:58.455Z,59.63
2019-06-26T01:49:58.425Z,59.74
2019-06-26T01:50:58.414Z,59.63
2019-06-26T01:51:58.355Z,59.63
2019-06-26T01:52:58.357Z,59.53
2019-06-26T01:53:58.295Z,59.53
2019-06-26T01:54:58.254Z,59.63
2019-06-26T01:55:58.255Z,59.74
2019-06-26T01:56:58.229Z,59.86
2019-06-26T01:57:58.165Z,59.96
2019-06-26T01:58:58.149Z,60.06
2019-06-26T01:59:58.112Z,60.06
2019-06-26T02:00:58.106Z,59.96
2019-06-26T02:01:58.047Z,59.96
2019-06-26T02:02:58.019Z,59.96
2019-06-26T02:03:58.006Z,59.86
2019-06-26T02:04:57.958Z,59.76
2019-06-26T02:05:57.959Z,59.76
2019-06-26T02:06:58.077Z,59.66
2019-06-26T02:07:57.886Z,59.66
2019-06-26T19:38:58.423Z,51.12
2019-06-26T19:39:58.315Z,51.12
2019-06-26T19:40:58.303Z,51.12
2019-06-26T19:41:58.320Z,51.12
2019-06-26T19:42:58.281Z,51.32
2019-06-26T19:43:58.261Z,51.12
2019-06-26T19:44:58.251Z,51.23
2019-06-26T19:45:58.242Z,51.72
2019-06-26T19:46:58.260Z,51.81
2019-06-26T19:47:58.530Z,51.81
2019-06-26T19:48:58.201Z,51.62
2019-06-26T19:49:58.201Z,51.62
2019-06-26T19:50:58.190Z,51.72
2019-06-26T19:51:58.267Z,51.81
2019-06-26T19:52:58.212Z,51.81
2019-06-26T19:53:58.242Z,52.01
2019-06-26T19:54:58.262Z,52.21
2019-06-26T19:55:58.142Z,52.31
2019-06-26T19:56:58.155Z,52.21
2019-06-26T19:57:58.113Z,52.14
2019-06-26T19:59:12.612Z,52.23
2019-06-26T19:59:58.092Z,52.31
2019-06-26T20:00:58.193Z,52.40
2019-06-26T20:01:58.094Z,52.50
2019-06-26T20:02:58.070Z,52.63
2019-06-26T20:03:58.053Z,52.63
2019-06-26T20:04:58.042Z,52.63
2019-06-26T20:05:58.126Z,52.73
2019-06-26T20:06:58.044Z,52.73
2019-06-26T20:07:58.005Z,52.73
2019-06-26T20:08:57.994Z,52.66
2019-06-26T20:10:01.612Z,52.75
2019-06-26T20:10:57.982Z,52.95
2019-06-26T20:11:58.112Z,52.95
2019-06-26T20:12:57.961Z,53.05
2019-06-26T20:13:57.954Z,53.05
2019-06-26T20:14:58.106Z,53.05
2019-06-26T20:15:58.026Z,52.75
2019-06-26T20:16:58.735Z,52.58
2019-06-26T20:17:58.076Z,52.48
2019-06-26T20:18:58.055Z,52.58
2019-06-26T20:19:58.045Z,52.58
2019-06-26T20:20:58.026Z,52.70
2019-06-26T20:21:58.113Z,52.91
2019-06-26T20:22:58.049Z,52.91
2019-06-26T20:23:58.436Z,53.20
2019-06-26T20:24:57.997Z,53.20
2019-06-26T20:25:57.938Z,53.33
2019-06-26T20:26:58.028Z,53.42
2019-06-26T20:27:57.926Z,53.42
2019-06-26T20:28:57.867Z,53.42
2019-06-26T20:29:57.933Z,53.52
2019-06-26T20:30:57.903Z,53.62
2019-06-26T20:31:57.972Z,53.52
2019-06-26T20:32:57.736Z,53.52
2019-06-26T20:33:57.884Z,53.52
2019-06-26T20:34:57.788Z,53.52
2019-06-26T20:35:57.719Z,53.42
2019-06-26T20:36:57.723Z,53.42
2019-06-26T20:37:57.679Z,53.42
2019-06-26T20:38:57.669Z,53.42
2019-06-26T20:39:57.658Z,53.52
2019-06-26T20:40:57.649Z,53.52
2019-06-26T20:41:57.669Z,53.64
2019-06-26T20:42:57.671Z,53.64
2019-06-26T20:43:57.618Z,53.64
2019-06-26T20:44:57.620Z,53.75
2019-06-26T20:45:57.615Z,53.64
2019-06-26T20:46:58.192Z,53.64
2019-06-26T20:47:57.620Z,53.64
2019-06-26T20:48:57.708Z,53.64
2019-06-26T20:49:57.698Z,53.64
2019-06-26T20:50:57.548Z,53.64
2019-06-26T20:51:57.733Z,53.75
2019-06-26T20:52:57.661Z,53.64
2019-06-26T20:53:57.610Z,53.77
2019-06-26T20:55:02.137Z,53.77
2019-06-26T20:55:58.551Z,53.77
2019-06-26T20:56:57.690Z,53.87
2019-06-26T20:57:57.642Z,53.77
2019-06-26T20:58:58.199Z,53.97
2019-06-26T20:59:57.592Z,53.97
2019-06-26T21:00:57.608Z,53.97
2019-06-26T21:01:57.632Z,54.06
2019-06-26T21:02:57.613Z,54.19
2019-06-26T21:03:57.533Z,54.39
2019-06-26T21:04:57.782Z,54.49
2019-06-26T21:05:57.559Z,54.59
2019-06-26T21:06:57.582Z,54.59
2019-06-26T21:07:57.622Z,54.69
2019-06-26T21:08:57.492Z,54.69
2019-06-26T21:09:57.495Z,54.69
2019-06-26T21:10:57.445Z,54.69
2019-06-26T21:11:57.456Z,54.69
2019-06-26T21:12:57.533Z,54.49
2019-06-26T21:13:57.443Z,54.39
2019-06-26T21:14:57.480Z,54.29
2019-06-26T21:15:57.274Z,54.29
2019-06-26T21:16:57.274Z,54.29
2019-06-26T21:17:57.274Z,54.19
2019-06-26T21:18:57.824Z,54.19
2019-06-26T21:19:57.365Z,54.19
2019-06-26T21:20:57.345Z,54.19
2019-06-26T21:21:57.339Z,54.19
2019-06-26T21:22:57.454Z,54.29
2019-06-26T21:23:57.324Z,54.29
2019-06-26T21:24:57.306Z,54.39
2019-06-26T21:25:57.357Z,54.29
2019-06-26T21:26:57.325Z,54.39
2019-06-26T21:27:57.336Z,54.39
2019-06-26T21:29:00.672Z,54.39
2019-06-26T21:29:57.279Z,54.59
2019-06-26T21:30:57.104Z,54.69
2019-06-26T21:31:57.166Z,54.56
2019-06-26T21:32:57.106Z,54.46
2019-06-26T21:33:57.076Z,54.17
2019-06-26T21:34:57.167Z,54.17
2019-06-26T21:35:57.195Z,54.19
2019-06-26T21:36:57.137Z,54.19
2019-06-26T21:37:57.256Z,54.29
2019-06-26T21:38:57.146Z,54.29
2019-06-26T21:39:57.134Z,54.49
2019-06-26T21:40:57.160Z,54.49
2019-06-26T21:41:57.127Z,54.39
2019-06-26T21:42:57.203Z,54.29
2019-06-26T21:43:57.108Z,54.29
2019-06-26T21:44:57.092Z,54.19
2019-06-26T21:45:57.048Z,54.19
2019-06-26T21:46:57.056Z,54.29
2019-06-26T21:47:57.535Z,54.29
2019-06-26T21:48:57.057Z,54.39
2019-06-26T21:49:56.944Z,54.49
2019-06-26T21:50:57.040Z,54.79
2019-06-26T21:51:56.879Z,54.59
2019-06-26T21:52:57.167Z,54.39
2019-06-26T21:53:56.860Z,54.19
2019-06-26T21:54:56.850Z,53.89
2019-06-26T21:55:56.838Z,53.99
2019-06-26T21:56:56.828Z,54.22
2019-06-26T21:57:56.876Z,54.32
2019-06-26T21:58:56.806Z,54.42
2019-06-26T21:59:56.790Z,54.61
2019-06-26T22:00:56.803Z,54.74
2019-06-26T22:01:56.771Z,54.84
2019-06-26T22:02:57.859Z,54.94
2019-06-26T22:03:56.750Z,55.04
2019-06-26T22:04:56.739Z,54.94
2019-06-26T22:05:56.735Z,54.94
2019-06-26T22:06:56.719Z,54.94
2019-06-26T22:07:56.731Z,54.94
2019-06-26T22:08:56.702Z,54.94
2019-06-26T22:09:56.754Z,55.04
2019-06-26T22:10:56.688Z,55.11
2019-06-26T22:11:57.077Z,55.41
2019-06-26T22:12:56.691Z,55.60
2019-06-26T22:13:56.642Z,55.51
2019-06-26T22:14:56.638Z,55.41
2019-06-26T22:15:56.630Z,54.32
2019-06-26T22:16:56.669Z,54.02
2019-06-26T22:17:56.642Z,53.92
2019-06-26T22:18:56.592Z,53.92
2019-06-26T22:19:56.584Z,54.02
2019-06-26T22:20:56.572Z,54.12
2019-06-26T22:21:56.562Z,54.12
2019-06-26T22:22:56.581Z,54.42
2019-06-26T22:23:56.557Z,54.71
2019-06-26T22:24:56.524Z,54.81
2019-06-26T22:25:56.529Z,55.41
2019-06-26T22:26:56.511Z,54.52
2019-06-26T22:27:56.528Z,54.12
2019-06-26T22:28:56.484Z,54.12
2019-06-26T22:29:56.473Z,54.12
2019-06-26T22:30:56.463Z,54.22
2019-06-26T22:31:56.459Z,54.32
2019-06-26T22:32:56.473Z,54.42
2019-06-26T22:33:56.434Z,54.81
2019-06-26T22:34:56.424Z,54.91
2019-06-26T22:35:56.412Z,55.11
2019-06-26T22:36:56.404Z,55.11
2019-06-26T22:37:56.416Z,54.79
2019-06-26T22:38:56.376Z,54.98
2019-06-26T22:39:56.365Z,55.18
2019-06-26T22:40:56.357Z,55.08
2019-06-26T22:41:56.347Z,55.18
2019-06-26T22:42:56.362Z,55.18
2019-06-26T22:43:56.324Z,53.99
2019-06-26T22:44:56.315Z,53.70
2019-06-26T22:45:56.296Z,53.11
2019-06-26T22:46:56.295Z,52.91
2019-06-26T22:47:56.475Z,52.83
2019-06-26T22:52:42.775Z,52.96
2019-06-26T22:53:42.718Z,53.06
2019-06-26T22:54:42.680Z,53.16
2019-06-26T22:55:42.671Z,53.08
2019-06-26T22:56:42.650Z,53.08
2019-06-26T22:57:42.653Z,53.18
2019-06-26T22:58:42.669Z,53.38
2019-06-26T22:59:42.622Z,53.50
2019-06-26T23:00:42.634Z,53.70
2019-06-26T23:01:42.602Z,53.70
2019-06-26T23:02:42.592Z,53.60
2019-06-26T23:03:42.611Z,53.60
2019-06-26T23:04:42.571Z,53.70
2019-06-26T23:05:42.562Z,53.60
2019-06-26T23:06:42.550Z,53.53
2019-06-26T23:07:42.541Z,53.53
2019-06-26T23:08:42.552Z,53.53
2019-06-26T23:09:42.513Z,53.53
2019-06-26T23:10:42.512Z,53.53
2019-06-26T23:11:42.493Z,53.63
2019-06-26T23:12:42.492Z,53.73
2019-06-26T23:13:42.502Z,53.85
2019-06-26T23:14:42.465Z,54.25
2019-06-26T23:15:42.453Z,54.62
2019-06-26T23:16:42.443Z,54.52
2019-06-26T23:17:42.433Z,54.52
2019-06-26T23:18:42.457Z,54.32
2019-06-26T23:19:42.414Z,54.22
2019-06-26T23:20:42.405Z,53.92
2019-06-26T23:21:42.393Z,53.63
2019-06-26T23:22:42.383Z,53.33
2019-06-26T23:23:42.395Z,53.13
2019-06-26T23:24:42.355Z,53.03
2019-06-26T23:25:42.345Z,53.13
2019-06-26T23:26:42.336Z,53.23
2019-06-26T23:27:42.325Z,53.33
2019-06-26T23:28:42.346Z,53.33
2019-06-26T23:29:42.305Z,53.33
2019-06-26T23:30:42.294Z,53.53
2019-06-26T23:31:42.294Z,53.73
2019-06-26T23:32:42.275Z,53.63
2019-06-26T23:33:42.287Z,53.53
2019-06-26T23:34:42.253Z,53.56
2019-06-26T23:35:42.245Z,53.56
2019-06-26T23:36:42.236Z,53.56
2019-06-26T23:37:42.216Z,53.66
2019-06-26T23:38:42.237Z,53.85
2019-06-26T23:39:42.207Z,53.96
2019-06-26T23:40:42.186Z,54.05
2019-06-26T23:41:42.179Z,54.15
2019-06-26T23:42:42.165Z,54.15
2019-06-26T23:43:42.198Z,54.15
2019-06-26T23:44:42.154Z,54.25
2019-06-26T23:45:42.128Z,54.25
2019-06-26T23:46:42.127Z,54.35
2019-06-26T23:47:42.117Z,54.45
2019-06-26T23:48:45.549Z,54.45
2019-06-26T23:49:42.088Z,54.45
2019-06-26T23:50:42.078Z,54.42
2019-06-26T23:51:42.070Z,54.22
2019-06-26T23:52:42.057Z,54.13
2019-06-26T23:53:42.082Z,54.13
2019-06-26T23:54:42.040Z,53.92
2019-06-26T23:55:42.028Z,53.92
2019-06-26T23:56:42.019Z,53.83
2019-06-26T23:57:57.897Z,53.73
2019-06-26T23:58:43.018Z,53.73
2019-06-26T23:59:42.000Z,53.73
